sensor_id;sensor_type;location;lat;lon;timestamp;P1;durP1;ratioP1;P2;durP2;ratioP2
25231;SDS011;13176;51.140;6.290;2023-08-07T00:01:52;517.38;;;480.30;;
25231;SDS011;13176;51.140;6.290;2023-08-07T00:04:19;532.20;;;496.85;;
25231;SDS011;13176;51.140;6.290;2023-08-07T00:06:45;561.50;;;522.05;;
25231;SDS011;13176;51.140;6.290;2023-08-07T00:09:12;611.72;;;565.85;;
25231;SDS011;13176;51.140;6.290;2023-08-07T00:11:38;507.70;;;474.40;;
25231;SDS011;13176;51.140;6.290;2023-08-07T00:14:04;491.50;;;457.88;;
25231;SDS011;13176;51.140;6.290;2023-08-07T00:16:31;574.95;;;532.58;;
25231;SDS011;13176;51.140;6.290;2023-08-07T00:18:57;545.92;;;506.50;;
25231;SDS011;13176;51.140;6.290;2023-08-07T00:21:24;556.97;;;518.72;;
25231;SDS011;13176;51.140;6.290;2023-08-07T00:23:50;555.85;;;517.50;;
25231;SDS011;13176;51.140;6.290;2023-08-07T00:26:17;753.33;;;692.65;;
25231;SDS011;13176;51.140;6.290;2023-08-07T00:28:44;562.63;;;523.13;;
25231;SDS011;13176;51.140;6.290;2023-08-07T00:31:13;613.03;;;568.58;;
25231;SDS011;13176;51.140;6.290;2023-08-07T00:33:40;602.28;;;559.78;;
25231;SDS011;13176;51.140;6.290;2023-08-07T00:36:07;642.38;;;595.83;;
25231;SDS011;13176;51.140;6.290;2023-08-07T00:38:33;703.28;;;649.83;;
25231;SDS011;13176;51.140;6.290;2023-08-07T00:41:00;718.00;;;663.63;;
25231;SDS011;13176;51.140;6.290;2023-08-07T00:43:26;665.38;;;615.97;;
25231;SDS011;13176;51.140;6.290;2023-08-07T00:45:53;713.03;;;658.70;;
25231;SDS011;13176;51.140;6.290;2023-08-07T00:48:19;710.47;;;655.80;;
25231;SDS011;13176;51.140;6.290;2023-08-07T00:50:46;701.53;;;649.55;;
25231;SDS011;13176;51.140;6.290;2023-08-07T00:53:14;685.92;;;636.10;;
25231;SDS011;13176;51.140;6.290;2023-08-07T00:55:41;696.47;;;643.25;;
25231;SDS011;13176;51.140;6.290;2023-08-07T00:58:08;650.83;;;603.60;;
25231;SDS011;13176;51.140;6.290;2023-08-07T01:00:35;630.72;;;584.50;;
25231;SDS011;13176;51.140;6.290;2023-08-07T01:03:04;635.67;;;589.55;;
25231;SDS011;13176;51.140;6.290;2023-08-07T01:05:32;627.17;;;582.80;;
25231;SDS011;13176;51.140;6.290;2023-08-07T01:07:58;615.53;;;573.20;;
25231;SDS011;13176;51.140;6.290;2023-08-07T01:10:27;578.88;;;537.20;;
25231;SDS011;13176;51.140;6.290;2023-08-07T01:13:03;591.22;;;550.67;;
25231;SDS011;13176;51.140;6.290;2023-08-07T01:15:36;541.15;;;503.75;;
25231;SDS011;13176;51.140;6.290;2023-08-07T01:18:04;542.83;;;506.58;;
25231;SDS011;13176;51.140;6.290;2023-08-07T01:20:33;561.88;;;523.08;;
25231;SDS011;13176;51.140;6.290;2023-08-07T01:23:02;593.38;;;545.47;;
25231;SDS011;13176;51.140;6.290;2023-08-07T01:25:28;468.52;;;435.05;;
25231;SDS011;13176;51.140;6.290;2023-08-07T01:30:45;404.08;;;376.48;;
25231;SDS011;13176;51.140;6.290;2023-08-07T01:35:46;477.33;;;444.05;;
25231;SDS011;13176;51.140;6.290;2023-08-07T01:38:15;443.20;;;413.52;;
25231;SDS011;13176;51.140;6.290;2023-08-07T01:40:42;435.65;;;404.83;;
25231;SDS011;13176;51.140;6.290;2023-08-07T01:43:10;491.67;;;456.73;;
25231;SDS011;13176;51.140;6.290;2023-08-07T01:45:36;464.23;;;431.20;;
25231;SDS011;13176;51.140;6.290;2023-08-07T01:48:03;417.23;;;387.88;;
25231;SDS011;13176;51.140;6.290;2023-08-07T01:50:30;449.50;;;419.45;;
25231;SDS011;13176;51.140;6.290;2023-08-07T01:52:56;440.45;;;409.88;;
25231;SDS011;13176;51.140;6.290;2023-08-07T01:55:23;455.15;;;423.05;;
25231;SDS011;13176;51.140;6.290;2023-08-07T01:57:51;495.35;;;460.27;;
25231;SDS011;13176;51.140;6.290;2023-08-07T02:00:18;489.55;;;455.67;;
25231;SDS011;13176;51.140;6.290;2023-08-07T02:02:45;525.80;;;489.50;;
25231;SDS011;13176;51.140;6.290;2023-08-07T02:05:13;561.80;;;523.13;;
25231;SDS011;13176;51.140;6.290;2023-08-07T02:07:40;588.35;;;546.25;;
25231;SDS011;13176;51.140;6.290;2023-08-07T02:10:07;607.17;;;563.10;;
25231;SDS011;13176;51.140;6.290;2023-08-07T02:12:34;585.10;;;542.78;;
25231;SDS011;13176;51.140;6.290;2023-08-07T02:15:01;601.63;;;558.33;;
25231;SDS011;13176;51.140;6.290;2023-08-07T02:17:27;541.70;;;502.60;;
25231;SDS011;13176;51.140;6.290;2023-08-07T02:19:56;564.90;;;525.05;;
25231;SDS011;13176;51.140;6.290;2023-08-07T02:22:23;571.63;;;532.53;;
25231;SDS011;13176;51.140;6.290;2023-08-07T02:24:50;546.40;;;510.70;;
25231;SDS011;13176;51.140;6.290;2023-08-07T02:27:16;549.33;;;510.77;;
25231;SDS011;13176;51.140;6.290;2023-08-07T02:29:43;513.00;;;478.13;;
25231;SDS011;13176;51.140;6.290;2023-08-07T02:32:10;485.90;;;453.45;;
25231;SDS011;13176;51.140;6.290;2023-08-07T02:34:36;423.88;;;395.30;;
25231;SDS011;13176;51.140;6.290;2023-08-07T02:37:03;374.95;;;349.48;;
25231;SDS011;13176;51.140;6.290;2023-08-07T02:39:30;387.67;;;362.15;;
25231;SDS011;13176;51.140;6.290;2023-08-07T02:41:56;342.63;;;319.02;;
25231;SDS011;13176;51.140;6.290;2023-08-07T02:44:23;336.35;;;314.50;;
25231;SDS011;13176;51.140;6.290;2023-08-07T02:46:49;361.05;;;337.48;;
25231;SDS011;13176;51.140;6.290;2023-08-07T02:49:16;303.48;;;283.27;;
25231;SDS011;13176;51.140;6.290;2023-08-07T02:51:42;342.10;;;319.30;;
25231;SDS011;13176;51.140;6.290;2023-08-07T02:54:08;403.77;;;377.25;;
25231;SDS011;13176;51.140;6.290;2023-08-07T02:56:35;424.58;;;396.35;;
25231;SDS011;13176;51.140;6.290;2023-08-07T02:59:01;448.77;;;419.05;;
25231;SDS011;13176;51.140;6.290;2023-08-07T03:01:28;439.52;;;410.38;;
25231;SDS011;13176;51.140;6.290;2023-08-07T03:03:55;455.98;;;425.52;;
25231;SDS011;13176;51.140;6.290;2023-08-07T03:06:22;477.10;;;445.08;;
25231;SDS011;13176;51.140;6.290;2023-08-07T03:08:48;474.40;;;442.17;;
25231;SDS011;13176;51.140;6.290;2023-08-07T03:11:14;478.27;;;444.27;;
25231;SDS011;13176;51.140;6.290;2023-08-07T03:13:41;486.63;;;452.83;;
25231;SDS011;13176;51.140;6.290;2023-08-07T03:16:10;453.50;;;422.65;;
25231;SDS011;13176;51.140;6.290;2023-08-07T03:18:37;433.15;;;404.25;;
25231;SDS011;13176;51.140;6.290;2023-08-07T03:21:03;375.30;;;350.02;;
25231;SDS011;13176;51.140;6.290;2023-08-07T03:23:30;361.48;;;337.95;;
25231;SDS011;13176;51.140;6.290;2023-08-07T03:26:09;322.05;;;302.13;;
25231;SDS011;13176;51.140;6.290;2023-08-07T03:28:44;347.95;;;324.60;;
25231;SDS011;13176;51.140;6.290;2023-08-07T03:31:14;394.70;;;368.25;;
25231;SDS011;13176;51.140;6.290;2023-08-07T03:33:41;420.95;;;393.45;;
25231;SDS011;13176;51.140;6.290;2023-08-07T03:36:08;443.80;;;414.15;;
25231;SDS011;13176;51.140;6.290;2023-08-07T03:38:35;439.65;;;410.60;;
25231;SDS011;13176;51.140;6.290;2023-08-07T03:41:01;451.88;;;421.40;;
25231;SDS011;13176;51.140;6.290;2023-08-07T03:43:28;473.63;;;442.65;;
25231;SDS011;13176;51.140;6.290;2023-08-07T03:45:55;482.17;;;450.55;;
25231;SDS011;13176;51.140;6.290;2023-08-07T03:48:29;441.17;;;412.90;;
25231;SDS011;13176;51.140;6.290;2023-08-07T03:51:05;473.85;;;442.55;;
25231;SDS011;13176;51.140;6.290;2023-08-07T03:53:34;435.88;;;407.55;;
25231;SDS011;13176;51.140;6.290;2023-08-07T03:56:01;519.40;;;483.83;;
25231;SDS011;13176;51.140;6.290;2023-08-07T03:58:29;505.48;;;470.98;;
25231;SDS011;13176;51.140;6.290;2023-08-07T04:00:55;534.88;;;498.67;;
25231;SDS011;13176;51.140;6.290;2023-08-07T04:03:22;553.60;;;515.95;;
25231;SDS011;13176;51.140;6.290;2023-08-07T04:05:52;529.97;;;494.02;;
25231;SDS011;13176;51.140;6.290;2023-08-07T04:08:20;524.97;;;489.90;;
25231;SDS011;13176;51.140;6.290;2023-08-07T04:11:03;534.60;;;498.73;;
25231;SDS011;13176;51.140;6.290;2023-08-07T04:13:31;506.85;;;473.05;;
25231;SDS011;13176;51.140;6.290;2023-08-07T04:15:58;535.28;;;499.02;;
25231;SDS011;13176;51.140;6.290;2023-08-07T04:18:26;508.98;;;474.25;;
25231;SDS011;13176;51.140;6.290;2023-08-07T04:20:53;490.27;;;456.30;;
25231;SDS011;13176;51.140;6.290;2023-08-07T04:23:21;480.55;;;447.90;;
25231;SDS011;13176;51.140;6.290;2023-08-07T04:25:48;445.27;;;415.13;;
25231;SDS011;13176;51.140;6.290;2023-08-07T04:28:15;474.85;;;443.27;;
25231;SDS011;13176;51.140;6.290;2023-08-07T04:30:42;496.63;;;463.10;;
25231;SDS011;13176;51.140;6.290;2023-08-07T04:33:10;553.50;;;515.22;;
25231;SDS011;13176;51.140;6.290;2023-08-07T04:35:36;531.13;;;495.10;;
25231;SDS011;13176;51.140;6.290;2023-08-07T04:38:03;525.10;;;490.33;;
25231;SDS011;13176;51.140;6.290;2023-08-07T04:40:29;537.72;;;501.92;;
25231;SDS011;13176;51.140;6.290;2023-08-07T04:42:56;523.95;;;488.77;;
25231;SDS011;13176;51.140;6.290;2023-08-07T04:45:22;501.20;;;468.67;;
25231;SDS011;13176;51.140;6.290;2023-08-07T04:47:49;497.25;;;464.23;;
25231;SDS011;13176;51.140;6.290;2023-08-07T04:50:16;493.92;;;459.20;;
25231;SDS011;13176;51.140;6.290;2023-08-07T04:52:42;492.13;;;458.90;;
25231;SDS011;13176;51.140;6.290;2023-08-07T04:55:08;464.40;;;432.55;;
25231;SDS011;13176;51.140;6.290;2023-08-07T04:57:35;419.42;;;391.13;;
25231;SDS011;13176;51.140;6.290;2023-08-07T05:00:01;396.38;;;369.10;;
25231;SDS011;13176;51.140;6.290;2023-08-07T05:02:28;406.88;;;378.95;;
25231;SDS011;13176;51.140;6.290;2023-08-07T05:04:55;304.80;;;284.88;;
25231;SDS011;13176;51.140;6.290;2023-08-07T05:07:21;271.60;;;254.52;;
25231;SDS011;13176;51.140;6.290;2023-08-07T05:09:48;277.38;;;260.38;;
25231;SDS011;13176;51.140;6.290;2023-08-07T05:12:15;231.38;;;217.20;;
25231;SDS011;13176;51.140;6.290;2023-08-07T05:14:42;233.57;;;219.00;;
25231;SDS011;13176;51.140;6.290;2023-08-07T05:17:08;212.63;;;199.77;;
25231;SDS011;13176;51.140;6.290;2023-08-07T05:19:35;187.63;;;176.02;;
25231;SDS011;13176;51.140;6.290;2023-08-07T05:22:01;185.15;;;174.00;;
25231;SDS011;13176;51.140;6.290;2023-08-07T05:24:28;206.45;;;193.75;;
25231;SDS011;13176;51.140;6.290;2023-08-07T05:27:00;170.82;;;160.55;;
25231;SDS011;13176;51.140;6.290;2023-08-07T05:29:26;152.75;;;142.95;;
25231;SDS011;13176;51.140;6.290;2023-08-07T05:31:53;176.02;;;165.48;;
25231;SDS011;13176;51.140;6.290;2023-08-07T05:34:20;157.65;;;148.07;;
25231;SDS011;13176;51.140;6.290;2023-08-07T05:36:47;149.65;;;140.18;;
25231;SDS011;13176;51.140;6.290;2023-08-07T05:39:13;162.65;;;152.48;;
25231;SDS011;13176;51.140;6.290;2023-08-07T05:41:40;139.63;;;130.77;;
25231;SDS011;13176;51.140;6.290;2023-08-07T05:44:09;158.07;;;147.95;;
25231;SDS011;13176;51.140;6.290;2023-08-07T05:46:36;182.85;;;171.05;;
25231;SDS011;13176;51.140;6.290;2023-08-07T05:49:02;201.73;;;188.80;;
25231;SDS011;13176;51.140;6.290;2023-08-07T05:51:29;188.65;;;176.45;;
25231;SDS011;13176;51.140;6.290;2023-08-07T05:53:56;149.40;;;139.90;;
25231;SDS011;13176;51.140;6.290;2023-08-07T05:56:22;203.95;;;191.13;;
25231;SDS011;13176;51.140;6.290;2023-08-07T05:58:48;194.98;;;182.45;;
25231;SDS011;13176;51.140;6.290;2023-08-07T06:01:15;203.25;;;190.30;;
25231;SDS011;13176;51.140;6.290;2023-08-07T06:03:43;156.25;;;146.02;;
25231;SDS011;13176;51.140;6.290;2023-08-07T06:06:10;198.35;;;185.68;;
25231;SDS011;13176;51.140;6.290;2023-08-07T06:08:36;209.43;;;195.65;;
25231;SDS011;13176;51.140;6.290;2023-08-07T06:11:03;215.40;;;201.65;;
25231;SDS011;13176;51.140;6.290;2023-08-07T06:13:31;186.55;;;174.30;;
25231;SDS011;13176;51.140;6.290;2023-08-07T06:16:01;237.65;;;222.30;;
25231;SDS011;13176;51.140;6.290;2023-08-07T06:18:28;223.63;;;209.30;;
25231;SDS011;13176;51.140;6.290;2023-08-07T06:20:56;260.77;;;243.85;;
25231;SDS011;13176;51.140;6.290;2023-08-07T06:23:22;243.45;;;227.70;;
25231;SDS011;13176;51.140;6.290;2023-08-07T06:25:49;277.88;;;260.10;;
25231;SDS011;13176;51.140;6.290;2023-08-07T06:28:22;279.42;;;261.75;;
25231;SDS011;13176;51.140;6.290;2023-08-07T06:30:48;264.77;;;248.25;;
25231;SDS011;13176;51.140;6.290;2023-08-07T06:33:15;286.48;;;268.58;;
25231;SDS011;13176;51.140;6.290;2023-08-07T06:35:41;319.23;;;299.63;;
25231;SDS011;13176;51.140;6.290;2023-08-07T06:38:08;284.25;;;266.85;;
25231;SDS011;13176;51.140;6.290;2023-08-07T06:40:35;299.75;;;280.67;;
25231;SDS011;13176;51.140;6.290;2023-08-07T06:43:01;319.73;;;299.38;;
25231;SDS011;13176;51.140;6.290;2023-08-07T06:45:31;404.33;;;377.58;;
25231;SDS011;13176;51.140;6.290;2023-08-07T06:47:57;389.35;;;363.75;;
25231;SDS011;13176;51.140;6.290;2023-08-07T06:50:24;432.85;;;404.30;;
25231;SDS011;13176;51.140;6.290;2023-08-07T06:52:50;387.58;;;362.90;;
25231;SDS011;13176;51.140;6.290;2023-08-07T06:55:17;452.92;;;423.70;;
25231;SDS011;13176;51.140;6.290;2023-08-07T06:57:44;441.27;;;413.23;;
25231;SDS011;13176;51.140;6.290;2023-08-07T07:00:11;419.67;;;392.75;;
25231;SDS011;13176;51.140;6.290;2023-08-07T07:02:38;366.35;;;343.88;;
25231;SDS011;13176;51.140;6.290;2023-08-07T07:05:05;430.70;;;403.25;;
25231;SDS011;13176;51.140;6.290;2023-08-07T07:07:32;463.63;;;432.92;;
25231;SDS011;13176;51.140;6.290;2023-08-07T07:09:58;480.00;;;447.67;;
25231;SDS011;13176;51.140;6.290;2023-08-07T07:12:27;453.08;;;422.75;;
25231;SDS011;13176;51.140;6.290;2023-08-07T07:14:53;400.73;;;373.33;;
25231;SDS011;13176;51.140;6.290;2023-08-07T07:17:20;403.00;;;375.80;;
25231;SDS011;13176;51.140;6.290;2023-08-07T07:19:46;359.70;;;335.63;;
25231;SDS011;13176;51.140;6.290;2023-08-07T07:22:13;358.67;;;336.27;;
25231;SDS011;13176;51.140;6.290;2023-08-07T07:24:39;317.55;;;298.60;;
25231;SDS011;13176;51.140;6.290;2023-08-07T07:27:06;262.58;;;246.80;;
25231;SDS011;13176;51.140;6.290;2023-08-07T07:29:33;270.17;;;253.27;;
25231;SDS011;13176;51.140;6.290;2023-08-07T07:31:59;233.75;;;219.25;;
25231;SDS011;13176;51.140;6.290;2023-08-07T07:34:26;224.32;;;210.57;;
25231;SDS011;13176;51.140;6.290;2023-08-07T07:36:53;182.63;;;171.52;;
25231;SDS011;13176;51.140;6.290;2023-08-07T07:39:20;168.45;;;158.15;;
25231;SDS011;13176;51.140;6.290;2023-08-07T07:41:47;121.57;;;114.13;;
25231;SDS011;13176;51.140;6.290;2023-08-07T07:44:13;150.68;;;141.23;;
25231;SDS011;13176;51.140;6.290;2023-08-07T07:46:40;171.20;;;160.25;;
25231;SDS011;13176;51.140;6.290;2023-08-07T07:49:07;167.30;;;157.20;;
25231;SDS011;13176;51.140;6.290;2023-08-07T07:51:33;139.60;;;130.75;;
25231;SDS011;13176;51.140;6.290;2023-08-07T07:54:01;103.78;;;96.97;;
25231;SDS011;13176;51.140;6.290;2023-08-07T07:56:39;100.57;;;94.30;;
25231;SDS011;13176;51.140;6.290;2023-08-07T07:59:06;78.05;;;73.10;;
25231;SDS011;13176;51.140;6.290;2023-08-07T08:01:34;74.90;;;70.22;;
25231;SDS011;13176;51.140;6.290;2023-08-07T08:04:02;75.35;;;70.65;;
25231;SDS011;13176;51.140;6.290;2023-08-07T08:06:28;82.80;;;77.32;;
25231;SDS011;13176;51.140;6.290;2023-08-07T08:08:56;91.65;;;86.13;;
25231;SDS011;13176;51.140;6.290;2023-08-07T08:11:23;75.70;;;70.75;;
25231;SDS011;13176;51.140;6.290;2023-08-07T08:13:49;70.60;;;66.03;;
25231;SDS011;13176;51.140;6.290;2023-08-07T08:16:17;78.40;;;73.00;;
25231;SDS011;13176;51.140;6.290;2023-08-07T08:18:44;97.55;;;91.43;;
25231;SDS011;13176;51.140;6.290;2023-08-07T08:21:16;82.30;;;77.43;;
25231;SDS011;13176;51.140;6.290;2023-08-07T08:23:47;86.05;;;80.90;;
25231;SDS011;13176;51.140;6.290;2023-08-07T08:26:13;80.57;;;75.22;;
25231;SDS011;13176;51.140;6.290;2023-08-07T08:28:40;91.90;;;86.38;;
25231;SDS011;13176;51.140;6.290;2023-08-07T08:31:06;88.43;;;82.63;;
25231;SDS011;13176;51.140;6.290;2023-08-07T08:33:33;93.28;;;87.25;;
25231;SDS011;13176;51.140;6.290;2023-08-07T08:35:59;94.72;;;88.80;;
25231;SDS011;13176;51.140;6.290;2023-08-07T08:38:25;94.15;;;87.72;;
25231;SDS011;13176;51.140;6.290;2023-08-07T08:40:58;86.45;;;81.03;;
25231;SDS011;13176;51.140;6.290;2023-08-07T08:43:29;94.03;;;88.22;;
25231;SDS011;13176;51.140;6.290;2023-08-07T08:46:00;85.53;;;80.32;;
25231;SDS011;13176;51.140;6.290;2023-08-07T08:48:29;83.97;;;78.47;;
25231;SDS011;13176;51.140;6.290;2023-08-07T08:51:00;83.97;;;78.88;;
25231;SDS011;13176;51.140;6.290;2023-08-07T08:53:30;79.30;;;74.50;;
25231;SDS011;13176;51.140;6.290;2023-08-07T08:55:58;86.85;;;81.43;;
25231;SDS011;13176;51.140;6.290;2023-08-07T08:58:26;84.53;;;79.18;;
25231;SDS011;13176;51.140;6.290;2023-08-07T09:00:54;85.53;;;79.78;;
25231;SDS011;13176;51.140;6.290;2023-08-07T09:03:20;83.72;;;78.65;;
25231;SDS011;13176;51.140;6.290;2023-08-07T09:05:47;91.18;;;85.80;;
25231;SDS011;13176;51.140;6.290;2023-08-07T09:08:15;75.95;;;71.22;;
25231;SDS011;13176;51.140;6.290;2023-08-07T09:10:43;75.38;;;70.93;;
25231;SDS011;13176;51.140;6.290;2023-08-07T09:13:10;79.15;;;74.32;;
25231;SDS011;13176;51.140;6.290;2023-08-07T09:15:40;73.55;;;68.85;;
25231;SDS011;13176;51.140;6.290;2023-08-07T09:18:17;71.78;;;67.03;;
25231;SDS011;13176;51.140;6.290;2023-08-07T09:20:46;67.47;;;63.10;;
25231;SDS011;13176;51.140;6.290;2023-08-07T09:23:13;70.55;;;66.28;;
25231;SDS011;13176;51.140;6.290;2023-08-07T09:25:42;56.08;;;52.63;;
25231;SDS011;13176;51.140;6.290;2023-08-07T09:28:11;58.28;;;54.88;;
25231;SDS011;13176;51.140;6.290;2023-08-07T09:30:38;58.63;;;55.13;;
25231;SDS011;13176;51.140;6.290;2023-08-07T09:33:05;66.97;;;62.75;;
25231;SDS011;13176;51.140;6.290;2023-08-07T09:35:32;66.53;;;62.33;;
25231;SDS011;13176;51.140;6.290;2023-08-07T09:38:00;59.75;;;55.70;;
25231;SDS011;13176;51.140;6.290;2023-08-07T09:40:27;75.43;;;70.70;;
25231;SDS011;13176;51.140;6.290;2023-08-07T09:42:55;58.08;;;54.67;;
25231;SDS011;13176;51.140;6.290;2023-08-07T09:45:23;61.08;;;57.03;;
25231;SDS011;13176;51.140;6.290;2023-08-07T09:47:56;54.92;;;51.05;;
25231;SDS011;13176;51.140;6.290;2023-08-07T09:50:28;56.22;;;52.65;;
25231;SDS011;13176;51.140;6.290;2023-08-07T09:52:56;76.28;;;71.43;;
25231;SDS011;13176;51.140;6.290;2023-08-07T09:55:24;69.40;;;65.20;;
25231;SDS011;13176;51.140;6.290;2023-08-07T09:57:52;50.33;;;47.13;;
25231;SDS011;13176;51.140;6.290;2023-08-07T10:00:19;59.50;;;55.70;;
25231;SDS011;13176;51.140;6.290;2023-08-07T10:02:47;57.70;;;53.67;;
25231;SDS011;13176;51.140;6.290;2023-08-07T10:05:18;60.10;;;56.40;;
25231;SDS011;13176;51.140;6.290;2023-08-07T10:07:44;54.95;;;51.78;;
25231;SDS011;13176;51.140;6.290;2023-08-07T10:10:13;51.00;;;47.75;;
25231;SDS011;13176;51.140;6.290;2023-08-07T10:12:42;53.83;;;50.33;;
25231;SDS011;13176;51.140;6.290;2023-08-07T10:15:12;47.40;;;44.47;;
25231;SDS011;13176;51.140;6.290;2023-08-07T10:17:40;62.65;;;59.00;;
25231;SDS011;13176;51.140;6.290;2023-08-07T10:20:07;58.72;;;55.03;;
25231;SDS011;13176;51.140;6.290;2023-08-07T10:22:34;59.30;;;55.72;;
25231;SDS011;13176;51.140;6.290;2023-08-07T10:25:05;42.13;;;39.42;;
25231;SDS011;13176;51.140;6.290;2023-08-07T10:27:33;38.72;;;36.28;;
25231;SDS011;13176;51.140;6.290;2023-08-07T10:30:04;40.55;;;38.17;;
25231;SDS011;13176;51.140;6.290;2023-08-07T10:32:34;40.40;;;37.90;;
25231;SDS011;13176;51.140;6.290;2023-08-07T10:35:04;43.38;;;40.58;;
25231;SDS011;13176;51.140;6.290;2023-08-07T10:37:42;39.35;;;36.92;;
25231;SDS011;13176;51.140;6.290;2023-08-07T10:40:13;34.78;;;32.60;;
25231;SDS011;13176;51.140;6.290;2023-08-07T10:42:55;38.60;;;36.15;;
25231;SDS011;13176;51.140;6.290;2023-08-07T10:45:26;55.45;;;52.10;;
25231;SDS011;13176;51.140;6.290;2023-08-07T10:48:13;50.78;;;47.70;;
25231;SDS011;13176;51.140;6.290;2023-08-07T10:53:20;45.45;;;42.25;;
25231;SDS011;13176;51.140;6.290;2023-08-07T10:58:30;43.33;;;40.45;;
25231;SDS011;13176;51.140;6.290;2023-08-07T11:03:56;47.70;;;44.72;;
25231;SDS011;13176;51.140;6.290;2023-08-07T11:06:30;35.30;;;33.08;;
25231;SDS011;13176;51.140;6.290;2023-08-07T11:09:01;36.92;;;34.58;;
25231;SDS011;13176;51.140;6.290;2023-08-07T11:11:34;36.63;;;34.53;;
25231;SDS011;13176;51.140;6.290;2023-08-07T11:14:06;31.00;;;28.95;;
25231;SDS011;13176;51.140;6.290;2023-08-07T11:16:34;31.88;;;29.63;;
25231;SDS011;13176;51.140;6.290;2023-08-07T11:19:01;29.92;;;28.15;;
25231;SDS011;13176;51.140;6.290;2023-08-07T11:21:29;31.17;;;28.90;;
25231;SDS011;13176;51.140;6.290;2023-08-07T11:24:00;20.50;;;19.13;;
25231;SDS011;13176;51.140;6.290;2023-08-07T11:26:27;23.17;;;21.17;;
25231;SDS011;13176;51.140;6.290;2023-08-07T11:28:54;28.08;;;26.15;;
25231;SDS011;13176;51.140;6.290;2023-08-07T11:31:22;24.48;;;22.88;;
25231;SDS011;13176;51.140;6.290;2023-08-07T11:33:57;19.67;;;18.50;;
25231;SDS011;13176;51.140;6.290;2023-08-07T11:36:24;24.90;;;22.73;;
25231;SDS011;13176;51.140;6.290;2023-08-07T11:38:51;28.42;;;26.48;;
25231;SDS011;13176;51.140;6.290;2023-08-07T11:41:18;26.42;;;24.58;;
25231;SDS011;13176;51.140;6.290;2023-08-07T11:43:45;24.83;;;23.20;;
25231;SDS011;13176;51.140;6.290;2023-08-07T11:46:13;23.63;;;22.17;;
25231;SDS011;13176;51.140;6.290;2023-08-07T11:48:43;26.52;;;24.75;;
25231;SDS011;13176;51.140;6.290;2023-08-07T11:51:10;28.63;;;26.60;;
25231;SDS011;13176;51.140;6.290;2023-08-07T11:53:40;27.63;;;25.98;;
25231;SDS011;13176;51.140;6.290;2023-08-07T11:56:08;27.70;;;25.90;;
25231;SDS011;13176;51.140;6.290;2023-08-07T11:58:40;30.83;;;28.80;;
25231;SDS011;13176;51.140;6.290;2023-08-07T12:01:21;33.50;;;31.48;;
25231;SDS011;13176;51.140;6.290;2023-08-07T12:03:51;30.83;;;29.00;;
25231;SDS011;13176;51.140;6.290;2023-08-07T12:06:38;20.58;;;19.30;;
25231;SDS011;13176;51.140;6.290;2023-08-07T12:09:12;17.90;;;16.60;;
25231;SDS011;13176;51.140;6.290;2023-08-07T12:11:41;21.00;;;19.45;;
25231;SDS011;13176;51.140;6.290;2023-08-07T12:14:08;23.92;;;22.10;;
25231;SDS011;13176;51.140;6.290;2023-08-07T12:16:39;27.48;;;25.75;;
25231;SDS011;13176;51.140;6.290;2023-08-07T12:19:06;25.02;;;23.42;;
25231;SDS011;13176;51.140;6.290;2023-08-07T12:21:34;17.88;;;16.83;;
25231;SDS011;13176;51.140;6.290;2023-08-07T12:24:00;19.30;;;17.70;;
25231;SDS011;13176;51.140;6.290;2023-08-07T12:26:26;21.60;;;19.88;;
25231;SDS011;13176;51.140;6.290;2023-08-07T12:28:53;20.70;;;19.40;;
25231;SDS011;13176;51.140;6.290;2023-08-07T12:31:20;23.13;;;21.38;;
25231;SDS011;13176;51.140;6.290;2023-08-07T12:33:47;23.80;;;21.95;;
25231;SDS011;13176;51.140;6.290;2023-08-07T12:36:14;21.80;;;20.50;;
25231;SDS011;13176;51.140;6.290;2023-08-07T12:38:46;23.48;;;22.05;;
25231;SDS011;13176;51.140;6.290;2023-08-07T12:41:13;21.75;;;20.40;;
25231;SDS011;13176;51.140;6.290;2023-08-07T12:43:45;23.48;;;21.88;;
25231;SDS011;13176;51.140;6.290;2023-08-07T12:46:17;22.88;;;21.15;;
25231;SDS011;13176;51.140;6.290;2023-08-07T12:48:47;25.42;;;23.75;;
25231;SDS011;13176;51.140;6.290;2023-08-07T12:51:14;24.25;;;22.60;;
25231;SDS011;13176;51.140;6.290;2023-08-07T12:53:40;25.90;;;24.23;;
25231;SDS011;13176;51.140;6.290;2023-08-07T12:56:08;27.75;;;26.05;;
25231;SDS011;13176;51.140;6.290;2023-08-07T12:58:34;27.13;;;25.33;;
25231;SDS011;13176;51.140;6.290;2023-08-07T13:01:04;26.63;;;24.83;;
25231;SDS011;13176;51.140;6.290;2023-08-07T13:03:31;29.50;;;27.63;;
25231;SDS011;13176;51.140;6.290;2023-08-07T13:05:57;33.83;;;31.65;;
25231;SDS011;13176;51.140;6.290;2023-08-07T13:08:26;28.17;;;26.25;;
25231;SDS011;13176;51.140;6.290;2023-08-07T13:10:53;27.05;;;25.42;;
25231;SDS011;13176;51.140;6.290;2023-08-07T13:13:20;30.23;;;28.13;;
25231;SDS011;13176;51.140;6.290;2023-08-07T13:15:47;27.90;;;26.10;;
25231;SDS011;13176;51.140;6.290;2023-08-07T13:18:13;29.73;;;27.85;;
25231;SDS011;13176;51.140;6.290;2023-08-07T13:20:42;30.15;;;28.23;;
25231;SDS011;13176;51.140;6.290;2023-08-07T13:23:09;29.15;;;27.08;;
25231;SDS011;13176;51.140;6.290;2023-08-07T13:25:36;23.08;;;21.63;;
25231;SDS011;13176;51.140;6.290;2023-08-07T13:28:03;24.88;;;23.27;;
25231;SDS011;13176;51.140;6.290;2023-08-07T13:30:33;31.38;;;29.17;;
25231;SDS011;13176;51.140;6.290;2023-08-07T13:33:02;58.38;;;54.83;;
25231;SDS011;13176;51.140;6.290;2023-08-07T13:35:29;36.88;;;34.67;;
25231;SDS011;13176;51.140;6.290;2023-08-07T13:37:57;38.45;;;36.17;;
25231;SDS011;13176;51.140;6.290;2023-08-07T13:40:23;45.58;;;42.38;;
25231;SDS011;13176;51.140;6.290;2023-08-07T13:42:50;54.50;;;50.70;;
25231;SDS011;13176;51.140;6.290;2023-08-07T13:45:16;68.85;;;64.43;;
25231;SDS011;13176;51.140;6.290;2023-08-07T13:47:43;39.88;;;37.00;;
25231;SDS011;13176;51.140;6.290;2023-08-07T13:50:09;34.33;;;31.65;;
25231;SDS011;13176;51.140;6.290;2023-08-07T13:52:39;66.82;;;62.88;;
25231;SDS011;13176;51.140;6.290;2023-08-07T13:55:05;41.15;;;38.38;;
25231;SDS011;13176;51.140;6.290;2023-08-07T13:57:32;30.70;;;28.85;;
25231;SDS011;13176;51.140;6.290;2023-08-07T14:00:00;29.02;;;27.17;;
25231;SDS011;13176;51.140;6.290;2023-08-07T14:02:28;39.30;;;36.92;;
25231;SDS011;13176;51.140;6.290;2023-08-07T14:04:56;26.42;;;24.70;;
25231;SDS011;13176;51.140;6.290;2023-08-07T14:07:23;27.63;;;25.77;;
25231;SDS011;13176;51.140;6.290;2023-08-07T14:09:50;34.20;;;32.03;;
25231;SDS011;13176;51.140;6.290;2023-08-07T14:12:16;27.63;;;25.80;;
25231;SDS011;13176;51.140;6.290;2023-08-07T14:14:42;30.08;;;28.35;;
25231;SDS011;13176;51.140;6.290;2023-08-07T14:17:09;33.80;;;31.70;;
25231;SDS011;13176;51.140;6.290;2023-08-07T14:19:36;31.70;;;29.70;;
25231;SDS011;13176;51.140;6.290;2023-08-07T14:22:02;33.67;;;31.58;;
25231;SDS011;13176;51.140;6.290;2023-08-07T14:24:29;30.00;;;28.13;;
25231;SDS011;13176;51.140;6.290;2023-08-07T14:26:55;45.53;;;42.90;;